Main page
METAR-TAF:

METAR-TAF

Airports :

Andrés Sabella Gálvez International Airport

Antofagasta, Chile

latitude: 23-26S, longitude: 070-26W, elevation: 135 m

Current weather observation

The report was made 55 minutes ago, at 05:00 UTC
Wind 1 kt from the North/Northwest
Temperature 14°C
Humidity 77%
Pressure 1017 hPa
Visibility 10 km or more
Overcast at a height of 1800 ft

METAR: SCFA 170500Z 33001KT 9999 OVC018 14/10 Q1017 NOSIG

Time: 01:55 (05:55 UTC)

Forecast

The report was made 1 hour and 12 minutes ago, at 04:43 UTC
Forecast valid from 17 at 06 UTC to 18 at 06 UTC
Wind 4 kt from the North/Northwest
Visibility 10 km or more
Overcast at a height of 1700 ft
Becoming
from 17 at 16 UTC to 17 at 18 UTC
Wind 10 kt from the Southwest
Broken clouds at a height of 2000 ft
Becoming
from 17 at 22 UTC to 18 at 00 UTC
Wind 4 kt from the South
Overcast at a height of 2000 ft

TAF: SCFA 170443Z 1706/1806 33004KT 9999 OVC017 TN12/1706Z TX15/1716Z BECMG 1716/1718 22010KT BKN020 BECMG 1722/1800 19004KT OVC020

Weather observations and forecasts of more than 4000 airports (METAR and TAF reports).

The available stations are represented by yellow and red dots on the map.

Hover mouse over dot to see the name of the station.

Then click to see weather observations and forecasts.

To change the map : click on the green buttons with a black cross to zoom in, on the green button with a dash to zoom out, or on the green arrows for adjacent maps.


METAR-TAF: